Santa Cruz de La Palma, Spain

02:08 PM WET am 20. Januar 2017 (GMT +0000)
San Jose | | Change Station

Höhe 837 ft 28.64 °N, 17.77 °W | Updated 4 minutes ago

Partly Cloudy
Teils Wolkig
65.1 °F
gefühlte 65.1 °F
N
7.6
Wind Wechselnd Wind aus Nordost
Gusts 10.7 mph

Heute
Max. -- | schwach -- °F
--% Regenrisiko
Gestern
Max. -- | schwach -- °F
Precip. -- inch
Druck 30.18 inch
Sichtweite 6.2 Meilen
Wolken Few 4000 ft
Taupunkt 56 °F
Feuchtigkeit 72%
Regen 0.00 inch
Schneehöhe Nicht verfügbar..
8:03 AM 6:40 PM
Letztes Viertel, 44% visible
METAR GCLA 201400Z 04005KT 350V100 9999 FEW040 22/13 Q1022
Druck 30.18 inch
Sichtweite 6.2 Meilen
Wolken Few 4000 ft
Taupunkt 56 °F
Feuchtigkeit 72%
Regen 0.00 inch
Schneehöhe Nicht verfügbar..
8:03 AM 6:40 PM
Letztes Viertel, 44% visible
METAR GCLA 201400Z 04005KT 350V100 9999 FEW040 22/13 Q1022

Get Your Daily Forecast Email!

Thanks for signing up!

Be on the lookout for a verification email in your inbox.

You'll start receiving the daily forecast at 8 AM.

×

10-Day Weather Forecast

×

Almanac

Astronomie

Jan. 20, 2017 Aufgang Untergang
Genaue Zeit
Bürgerliche Dämmerung
Nautische Dämmerung
Astronomische Dämmerung
Mond
Länge des sichtbaren Lichts
Tageslänge
Tomorrow will be .
, % of the Moon is Illuminated

Heutige Rekorde

Country Highs Country Lows

Community

WunderPhotos

Upload Photos

1,962,540 Fotos hochgeladen!

WunderBlog® & News

Nearby

Luftqualität

  Luftqualität LQ Index Schadstoff
Not available.

Schneehöhe

Station Depth Höhe

Erdbebenaktivität

Stadt Distance Mag. Time & Date
Minimum magnitude displayed is 2.5.

küstennahe Wassertemperaturen

Ort Temperatur

Stations

Wetterstationen in der Umgebung

Stationsstandort Temp. Windchill Taupunkt Feuchtigkeit Wind Precip. Höhe Aktualisiert Art